Terminal Aerodrome Forecast
Issued by NWS

Home | Current Version | Previous Version | Text Only | Print | Product List | Glossary On
Versions: 1 2 3 4 5 6 7 8 9 10 11 12 13 14 15 16 17 18 19 20 21
602
FTUS45 KABQ 110738 AAA
TAFLVS
TAF AMD
KLVS 110738Z 1108/1206 24012G22KT P6SM BKN200
      TEMPO 1108/1112 10011KT
     FM111600 27018G28KT P6SM SCT130 BKN200
     FM111900 28018G25KT P6SM SCT120 SCT200
     FM120100 27011KT P6SM FEW200=

USA.gov is the U.S. government's official web portal to all federal, state and local government web resources and services.